createdAt,value
2019-03-08T00:01:44.372Z,99246.94
2019-03-08T00:04:14.863Z,99250.53
2019-03-08T00:06:45.073Z,99249.70
2019-03-08T00:09:15.288Z,99251.91
2019-03-08T00:11:47.039Z,99252.02
2019-03-08T00:14:17.649Z,99255.91
2019-03-08T00:16:48.200Z,99251.47
2019-03-08T00:19:18.413Z,99250.23
2019-03-08T00:21:48.647Z,99248.50
2019-03-08T00:24:18.861Z,99254.28
2019-03-08T00:26:49.086Z,99253.86
2019-03-08T00:29:20.058Z,99255.67
2019-03-08T00:31:51.763Z,99266.27
2019-03-08T00:34:22.395Z,99277.09
2019-03-08T00:36:53.014Z,99281.67
2019-03-08T00:39:23.641Z,99277.23
2019-03-08T00:41:54.390Z,99278.05
2019-03-08T00:44:24.599Z,99273.42
2019-03-08T00:46:54.835Z,99275.25
2019-03-08T00:49:25.044Z,99273.62
2019-03-08T00:51:55.333Z,99278.83
2019-03-08T00:54:25.501Z,99276.69
2019-03-08T00:56:55.730Z,99288.22
2019-03-08T00:59:25.979Z,99292.32
2019-03-08T01:01:56.604Z,99296.69
2019-03-08T01:04:26.903Z,99298.12
2019-03-08T01:06:57.105Z,99309.72
2019-03-08T01:09:27.385Z,99308.73
2019-03-08T01:11:57.599Z,99305.80
2019-03-08T01:14:27.966Z,99309.53
2019-03-08T01:16:58.428Z,99305.23
2019-03-08T01:19:28.669Z,99307.44
2019-03-08T01:21:59.318Z,99304.72
2019-03-08T01:24:30.190Z,99308.11
2019-03-08T01:27:00.841Z,99318.20
2019-03-08T01:29:31.159Z,99318.06
2019-03-08T01:32:01.708Z,99319.42
2019-03-08T01:34:32.104Z,99319.15
2019-03-08T01:37:02.306Z,99316.15
2019-03-08T01:39:32.543Z,99320.30
2019-03-08T01:42:02.746Z,99322.17
2019-03-08T01:44:33.921Z,99325.81
2019-03-08T01:47:04.591Z,99322.86
2019-03-08T01:49:35.147Z,99325.20
2019-03-08T01:52:05.780Z,99330.41
2019-03-08T01:54:36.061Z,99330.52
2019-03-08T01:57:06.278Z,99324.55
2019-03-08T01:59:36.988Z,99329.87
2019-03-08T02:02:07.226Z,99333.00
2019-03-08T02:04:37.726Z,99331.18
2019-03-08T02:07:09.054Z,99339.13
2019-03-08T02:09:39.778Z,99340.30
2019-03-08T02:12:11.231Z,99337.36
2019-03-08T02:14:41.867Z,99343.81
2019-03-08T02:17:12.228Z,99342.84
2019-03-08T02:19:42.457Z,99333.91
2019-03-08T02:22:12.688Z,99337.81
2019-03-08T02:24:43.421Z,99336.23
2019-03-08T02:27:13.713Z,99339.68
2019-03-08T02:29:43.941Z,99335.94
2019-03-08T02:32:14.144Z,99335.16
2019-03-08T02:34:45.340Z,99343.08
2019-03-08T02:37:15.904Z,99349.91
2019-03-08T02:39:46.835Z,99338.33
2019-03-08T02:42:17.460Z,99343.70
2019-03-08T02:44:47.780Z,99347.84
2019-03-08T02:47:18.393Z,99351.36
2019-03-08T02:49:49.305Z,99350.06
2019-03-08T02:52:21.203Z,99349.02
2019-03-08T02:54:51.493Z,99350.11
2019-03-08T02:57:21.711Z,99347.90
2019-03-08T02:59:52.272Z,99342.42
2019-03-08T03:02:23.199Z,99339.63
2019-03-08T03:04:53.498Z,99334.42
2019-03-08T03:07:23.733Z,99341.17
2019-03-08T03:09:54.395Z,99342.66
2019-03-08T03:12:24.734Z,99347.05
2019-03-08T03:14:55.386Z,99349.03
2019-03-08T03:17:26.112Z,99346.47
2019-03-08T03:19:56.737Z,99345.58
2019-03-08T03:22:27.012Z,99350.44
2019-03-08T03:24:57.574Z,99346.36
2019-03-08T03:27:28.198Z,99353.23
2019-03-08T03:29:58.491Z,99358.66
2019-03-08T03:32:28.694Z,99362.33
2019-03-08T03:34:59.426Z,99359.94
2019-03-08T03:37:29.702Z,99362.36
2019-03-08T03:39:59.926Z,99361.45
2019-03-08T03:42:30.128Z,99364.61
2019-03-08T03:45:00.741Z,99370.43
2019-03-08T03:47:31.350Z,99373.77
2019-03-08T03:50:02.749Z,99370.08
2019-03-08T03:52:32.980Z,99383.69
2019-03-08T03:55:03.413Z,99373.20
2019-03-08T03:57:33.618Z,99372.80
2019-03-08T04:00:06.765Z,99368.39
2019-03-08T04:02:36.960Z,99367.39
2019-03-08T04:05:09.303Z,99372.05
2019-03-08T04:07:39.926Z,99376.17
2019-03-08T04:10:16.821Z,99379.02
2019-03-08T04:12:47.394Z,99389.11
2019-03-08T04:15:19.246Z,99390.11
2019-03-08T04:17:50.468Z,99385.50
2019-03-08T04:20:22.033Z,99378.70
2019-03-08T04:22:52.497Z,99382.23
2019-03-08T04:25:22.707Z,99384.48
2019-03-08T04:27:52.939Z,99387.58
2019-03-08T04:30:23.428Z,99395.02
2019-03-08T04:32:54.038Z,99385.43
2019-03-08T04:35:24.314Z,99386.63
2019-03-08T04:37:54.586Z,99384.48
2019-03-08T04:40:25.864Z,99390.22
2019-03-08T04:42:56.922Z,99387.08
2019-03-08T04:45:27.188Z,99388.97
2019-03-08T04:47:57.398Z,99393.98
2019-03-08T04:50:27.603Z,99398.73
2019-03-08T04:52:58.221Z,99397.43
2019-03-08T04:55:28.863Z,99405.22
2019-03-08T04:57:59.179Z,99406.56
2019-03-08T05:00:29.857Z,99414.45
2019-03-08T05:03:00.165Z,99413.65
2019-03-08T05:05:30.719Z,99407.56
2019-03-08T05:08:01.401Z,99401.56
2019-03-08T05:10:31.660Z,99406.97
2019-03-08T05:13:01.888Z,99403.03
2019-03-08T05:15:32.090Z,99407.37
2019-03-08T05:18:03.031Z,99407.47
2019-03-08T05:20:33.303Z,99404.95
2019-03-08T05:23:03.507Z,99401.56
2019-03-08T05:25:34.186Z,99404.16
2019-03-08T05:28:04.986Z,99404.95
2019-03-08T05:30:35.835Z,99406.40
2019-03-08T05:33:08.018Z,99409.66
2019-03-08T05:35:38.640Z,99401.28
2019-03-08T05:38:09.363Z,99403.78
2019-03-08T05:40:39.986Z,99402.84
2019-03-08T05:43:10.356Z,99399.74
2019-03-08T05:45:40.570Z,99397.45
2019-03-08T05:48:11.084Z,99392.48
2019-03-08T05:50:41.280Z,99395.69
2019-03-08T05:53:11.490Z,99402.42
2019-03-08T05:55:41.695Z,99388.48
2019-03-08T05:58:11.912Z,99394.42
2019-03-08T06:00:42.107Z,99404.62
2019-03-08T06:03:12.555Z,99390.84
2019-03-08T06:05:42.798Z,99400.78
2019-03-08T06:08:12.996Z,99407.94
2019-03-08T06:10:43.801Z,99404.56
2019-03-08T06:13:14.081Z,99398.31
2019-03-08T06:15:44.596Z,99420.90
2019-03-08T06:18:14.877Z,99409.75
2019-03-08T06:20:45.183Z,99423.02
2019-03-08T06:23:15.776Z,99422.93
2019-03-08T06:25:46.060Z,99416.26
2019-03-08T06:28:16.755Z,99417.78
2019-03-08T06:30:47.097Z,99439.07
2019-03-08T06:33:17.711Z,99433.39
2019-03-08T06:35:48.361Z,99435.58
2019-03-08T06:38:19.007Z,99447.64
2019-03-08T06:40:49.293Z,99453.45
2019-03-08T06:43:19.898Z,99451.17
2019-03-08T06:45:50.502Z,99430.36
2019-03-08T06:48:20.794Z,99430.15
2019-03-08T06:50:51.012Z,99421.69
2019-03-08T06:53:21.253Z,99421.55
2019-03-08T06:55:51.899Z,99424.84
2019-03-08T06:58:30.161Z,99416.02
2019-03-08T07:01:00.579Z,99403.80
2019-03-08T07:03:31.443Z,99408.54
2019-03-08T07:06:02.095Z,99397.17
2019-03-08T07:08:32.376Z,99421.29
2019-03-08T07:11:02.673Z,99411.03
2019-03-08T07:13:32.968Z,99403.25
2019-03-08T07:16:12.505Z,99415.08
2019-03-08T07:18:35.101Z,99414.20
2019-03-08T07:21:09.868Z,99405.11
2019-03-08T07:23:56.687Z,99409.44
2019-03-08T07:26:31.702Z,99409.48
2019-03-08T07:29:06.941Z,99416.52
2019-03-08T07:31:47.878Z,99415.52
2019-03-08T07:34:36.190Z,99415.31
2019-03-08T07:37:26.051Z,99413.34
2019-03-08T07:40:06.635Z,99413.58
2019-03-08T07:42:42.263Z,99413.98
2019-03-08T07:45:17.553Z,99406.15
2019-03-08T07:47:51.062Z,99393.16
2019-03-08T07:50:23.358Z,99396.48
2019-03-08T07:52:57.950Z,99399.20
2019-03-08T07:55:42.367Z,99419.45
2019-03-08T07:58:14.635Z,99420.42
2019-03-08T08:00:46.561Z,99420.72
2019-03-08T08:03:21.871Z,99400.34
2019-03-08T08:06:10.124Z,99416.69
2019-03-08T08:08:51.383Z,99416.19
2019-03-08T08:11:24.640Z,99397.19
2019-03-08T08:14:02.632Z,99408.88
2019-03-08T08:16:43.391Z,99403.13
2019-03-08T08:19:17.857Z,99384.42
2019-03-08T08:21:53.148Z,99393.17
2019-03-08T08:24:31.369Z,99394.97
2019-03-08T08:27:14.909Z,99412.86
2019-03-08T08:29:53.739Z,99399.83
2019-03-08T08:32:41.403Z,99391.67
2019-03-08T08:35:19.474Z,99421.41
2019-03-08T08:38:00.728Z,99417.19
2019-03-08T08:40:48.931Z,99416.38
2019-03-08T08:43:33.617Z,99402.67
2019-03-08T08:46:18.975Z,99420.52
2019-03-08T08:49:05.552Z,99386.87
2019-03-08T08:51:50.535Z,99397.81
2019-03-08T08:54:39.298Z,99395.30
2019-03-08T08:57:11.693Z,99381.91
2019-03-08T08:59:54.275Z,99387.25
2019-03-08T09:02:29.331Z,99387.82
2019-03-08T09:05:07.299Z,99388.80
2019-03-08T09:07:42.870Z,99343.98
2019-03-08T09:10:16.267Z,99360.67
2019-03-08T09:12:48.637Z,99359.33
2019-03-08T09:15:25.530Z,99342.48
2019-03-08T09:18:04.703Z,99373.20
2019-03-08T09:20:50.379Z,99367.04
2019-03-08T09:23:38.286Z,99368.08
2019-03-08T09:26:26.849Z,99349.46
2019-03-08T09:29:08.589Z,99361.33
2019-03-08T09:31:43.852Z,99352.94
2019-03-08T09:34:18.876Z,99348.19
2019-03-08T09:36:55.174Z,99338.52
2019-03-08T09:39:31.589Z,99344.09
2019-03-08T09:42:19.448Z,99347.00
2019-03-08T09:45:07.799Z,99333.66
2019-03-08T09:47:39.936Z,99342.77
2019-03-08T09:50:22.566Z,99347.68
2019-03-08T09:52:54.902Z,99346.04
2019-03-08T09:55:27.452Z,99332.06
2019-03-08T09:58:02.635Z,99360.20
2019-03-08T10:00:34.579Z,99342.86
2019-03-08T10:03:21.770Z,99360.36
2019-03-08T10:06:03.044Z,99333.56
2019-03-08T10:08:38.097Z,99362.47
2019-03-08T10:11:18.987Z,99350.06
2019-03-08T10:14:07.657Z,99334.73
2019-03-08T10:16:39.963Z,99361.02
2019-03-08T10:19:28.208Z,99333.77
2019-03-08T10:22:06.424Z,99355.23
2019-03-08T10:24:42.587Z,99351.56
2019-03-08T10:27:15.350Z,99337.63
2019-03-08T10:29:51.521Z,99343.38
2019-03-08T10:32:37.670Z,99335.06
2019-03-08T10:35:24.118Z,99324.73
2019-03-08T10:37:55.424Z,99342.73
2019-03-08T10:40:40.259Z,99340.43
2019-03-08T10:43:27.075Z,99325.24
2019-03-08T10:46:15.910Z,99336.21
2019-03-08T10:48:58.581Z,99332.58
2019-03-08T10:51:46.213Z,99343.94
2019-03-08T10:54:30.383Z,99341.73
2019-03-08T10:57:02.607Z,99335.03
2019-03-08T10:59:40.867Z,99325.69
2019-03-08T11:02:22.119Z,99340.60
2019-03-08T11:04:54.505Z,99326.33
2019-03-08T11:07:32.320Z,99345.12
2019-03-08T11:10:16.646Z,99330.59
2019-03-08T11:12:51.785Z,99339.49
2019-03-08T11:15:29.432Z,99327.31
2019-03-08T11:18:04.567Z,99334.33
2019-03-08T11:20:51.767Z,99332.81
2019-03-08T11:23:40.494Z,99325.63
2019-03-08T11:26:14.933Z,99337.25
2019-03-08T11:28:49.754Z,99335.59
2019-03-08T11:31:34.925Z,99324.39
2019-03-08T11:34:10.034Z,99322.42
2019-03-08T11:36:51.291Z,99336.58
2019-03-08T11:39:24.064Z,99332.50
2019-03-08T11:42:00.169Z,99338.59
2019-03-08T11:44:38.273Z,99328.92
2019-03-08T11:47:26.851Z,99332.36
2019-03-08T11:50:09.033Z,99329.24
2019-03-08T11:52:41.362Z,99325.81
2019-03-08T11:55:20.200Z,99323.86
2019-03-08T11:57:58.284Z,99337.31
2019-03-08T12:00:48.566Z,99330.93
2019-03-08T12:03:39.279Z,99322.66
2019-03-08T12:06:11.577Z,99320.27
2019-03-08T12:08:43.860Z,99319.98
2019-03-08T12:11:33.462Z,99323.94
2019-03-08T12:14:11.958Z,99313.88
2019-03-08T12:16:44.229Z,99325.36
2019-03-08T12:19:33.012Z,99332.16
2019-03-08T12:22:09.476Z,99323.23
2019-03-08T12:24:44.126Z,99324.92
2019-03-08T12:27:21.939Z,99314.01
2019-03-08T12:29:56.746Z,99322.75
2019-03-08T12:32:34.326Z,99321.86
2019-03-08T12:35:07.158Z,99321.43
2019-03-08T12:37:53.886Z,99319.05
2019-03-08T12:40:31.465Z,99327.20
2019-03-08T12:43:08.117Z,99328.92
2019-03-08T12:45:55.791Z,99332.30
2019-03-08T12:48:26.469Z,99321.88
2019-03-08T12:51:01.321Z,99326.66
2019-03-08T12:53:45.490Z,99329.27
2019-03-08T12:56:20.214Z,99341.64
2019-03-08T12:59:07.459Z,99338.14
2019-03-08T13:01:45.085Z,99341.53
2019-03-08T13:04:20.544Z,99344.17
2019-03-08T13:07:04.157Z,99347.67
2019-03-08T13:09:36.407Z,99339.50
2019-03-08T13:12:07.038Z,99360.70
2019-03-08T13:14:37.313Z,99356.58
2019-03-08T13:17:08.691Z,99359.39
2019-03-08T13:19:39.470Z,99366.70
2019-03-08T13:22:10.325Z,99366.33
2019-03-08T13:24:40.983Z,99368.95
2019-03-08T13:27:11.926Z,99365.85
2019-03-08T13:29:42.201Z,99374.72
2019-03-08T13:32:12.484Z,99379.77
2019-03-08T13:34:42.738Z,99384.09
2019-03-08T13:37:13.560Z,99388.22
2019-03-08T13:39:43.951Z,99391.95
2019-03-08T13:42:14.298Z,99381.98
2019-03-08T13:44:45.051Z,99393.59
2019-03-08T13:47:15.826Z,99397.33
2019-03-08T13:49:46.445Z,99395.91
2019-03-08T13:52:16.748Z,99395.52
2019-03-08T13:54:46.988Z,99395.44
2019-03-08T13:57:17.669Z,99398.62
2019-03-08T13:59:51.132Z,99407.84
2019-03-08T14:02:21.492Z,99396.05
2019-03-08T14:04:52.045Z,99400.66
2019-03-08T14:07:22.718Z,99403.42
2019-03-08T14:09:53.628Z,99398.16
2019-03-08T14:12:25.700Z,99410.38
2019-03-08T14:14:56.461Z,99410.28
2019-03-08T14:17:49.163Z,99414.74
2019-03-08T14:20:10.353Z,99416.07
2019-03-08T14:22:41.965Z,99417.13
2019-03-08T14:25:13.122Z,99411.77
2019-03-08T14:27:43.341Z,99415.63
2019-03-08T14:30:16.998Z,99419.19
2019-03-08T14:32:47.622Z,99419.06
2019-03-08T14:35:18.057Z,99423.42
2019-03-08T14:37:52.350Z,99410.18
2019-03-08T14:40:25.333Z,99420.22
2019-03-08T14:42:58.520Z,99416.00
2019-03-08T14:45:40.541Z,99436.44
2019-03-08T14:48:11.436Z,99435.38
2019-03-08T14:50:41.740Z,99427.63
2019-03-08T14:53:11.947Z,99434.64
2019-03-08T14:55:43.962Z,99431.54
2019-03-08T14:58:16.805Z,99435.23
2019-03-08T15:00:47.073Z,99433.80
2019-03-08T15:03:20.133Z,99446.52
2019-03-08T15:05:54.776Z,99440.86
2019-03-08T15:08:24.705Z,99447.42
2019-03-08T15:10:55.776Z,99454.91
2019-03-08T15:13:27.477Z,99454.67
2019-03-08T15:16:02.234Z,99451.55
2019-03-08T15:18:31.224Z,99454.63
2019-03-08T15:21:02.167Z,99455.60
2019-03-08T15:23:32.890Z,99457.33
2019-03-08T15:26:03.614Z,99454.45
2019-03-08T15:28:34.261Z,99459.53
2019-03-08T15:31:04.551Z,99477.89
2019-03-08T15:33:34.805Z,99470.13
2019-03-08T15:36:05.055Z,99471.80
2019-03-08T15:38:36.898Z,99471.05
2019-03-08T15:41:07.552Z,99481.31
2019-03-08T15:43:38.193Z,99480.24
2019-03-08T15:46:08.495Z,99483.95
2019-03-08T15:48:38.748Z,99494.20
2019-03-08T15:51:10.961Z,99497.75
2019-03-08T15:53:42.666Z,99496.38
2019-03-08T15:56:12.973Z,99482.64
2019-03-08T15:58:43.571Z,99503.47
2019-03-08T16:01:14.050Z,99501.17
2019-03-08T16:03:44.693Z,99503.58
2019-03-08T16:06:14.977Z,99504.36
2019-03-08T16:08:45.307Z,99516.45
2019-03-08T16:11:21.589Z,99518.23
2019-03-08T16:13:52.488Z,99512.38
2019-03-08T16:16:23.860Z,99525.31
2019-03-08T16:18:54.419Z,99517.45
2019-03-08T16:21:25.082Z,99525.95
2019-03-08T16:23:57.043Z,99527.93
2019-03-08T16:26:27.327Z,99522.56
2019-03-08T16:28:57.458Z,99539.27
2019-03-08T16:31:34.839Z,99542.05
2019-03-08T16:34:07.235Z,99539.89
2019-03-08T16:36:39.183Z,99547.43
2019-03-08T16:39:11.004Z,99551.82
2019-03-08T16:41:42.787Z,99559.89
2019-03-08T16:44:31.203Z,99567.45
2019-03-08T16:47:03.657Z,99570.30
2019-03-08T16:49:41.794Z,99580.70
2019-03-08T16:52:28.475Z,99585.47
2019-03-08T16:55:02.701Z,99597.72
2019-03-08T16:57:52.060Z,99598.57
2019-03-08T17:00:23.913Z,99598.78
2019-03-08T17:03:02.651Z,99597.41
2019-03-08T17:05:35.233Z,99593.58
2019-03-08T17:08:25.209Z,99620.59
2019-03-08T17:11:14.022Z,99623.38
2019-03-08T17:13:46.024Z,99623.95
2019-03-08T17:16:27.347Z,99621.76
2019-03-08T17:19:11.697Z,99637.22
2019-03-08T17:21:38.484Z,99637.89
2019-03-08T17:24:10.402Z,99633.74
2019-03-08T17:26:42.888Z,99635.58
2019-03-08T17:29:33.353Z,99631.59
2019-03-08T17:32:14.613Z,99629.43
2019-03-08T17:34:49.309Z,99675.56
2019-03-08T17:37:26.699Z,99677.38
2019-03-08T17:40:15.695Z,99692.79
2019-03-08T17:42:59.853Z,99727.47
2019-03-08T17:45:32.207Z,99720.78
2019-03-08T17:48:09.930Z,99719.00
2019-03-08T17:50:57.868Z,99731.79
2019-03-08T17:53:31.300Z,99734.23
2019-03-08T17:56:03.263Z,99750.53
2019-03-08T17:58:50.511Z,99747.92
2019-03-08T18:01:22.346Z,99743.73
2019-03-08T18:03:59.667Z,99752.13
2019-03-08T18:06:31.868Z,99748.59
2019-03-08T18:09:12.636Z,99750.54
2019-03-08T18:11:47.488Z,99755.63
2019-03-08T18:14:34.953Z,99766.00
2019-03-08T18:17:15.518Z,99768.55
2019-03-08T18:19:50.141Z,99770.66
2019-03-08T18:22:37.556Z,99771.89
2019-03-08T18:25:12.936Z,99776.48
2019-03-08T18:28:01.094Z,99781.98
2019-03-08T18:30:32.952Z,99785.01
2019-03-08T18:33:19.723Z,99785.56
2019-03-08T18:36:07.959Z,99780.75
2019-03-08T18:38:52.208Z,99782.23
2019-03-08T18:41:30.232Z,99793.40
2019-03-08T18:44:11.381Z,99797.09
2019-03-08T18:46:55.550Z,99794.77
2019-03-08T18:49:43.124Z,99795.32
2019-03-08T18:52:25.019Z,99805.52
2019-03-08T18:55:06.078Z,99800.48
2019-03-08T18:57:40.857Z,99805.52
2019-03-08T19:00:15.844Z,99811.80
2019-03-08T19:03:05.827Z,99817.13
2019-03-08T19:05:40.327Z,99823.14
2019-03-08T19:08:14.947Z,99826.36
2019-03-08T19:10:49.872Z,99823.64
2019-03-08T19:13:30.863Z,99822.00
2019-03-08T19:16:02.724Z,99834.84
2019-03-08T19:18:40.911Z,99844.56
2019-03-08T19:21:16.496Z,99848.03
2019-03-08T19:23:48.733Z,99853.70
2019-03-08T19:26:21.337Z,99857.70
2019-03-08T19:29:04.261Z,99867.84
2019-03-08T19:31:36.532Z,99865.43
2019-03-08T19:34:08.870Z,99866.48
2019-03-08T19:36:43.260Z,99876.36
2019-03-08T19:39:18.076Z,99875.46
2019-03-08T19:42:05.153Z,99880.97
2019-03-08T19:44:42.816Z,99878.16
2019-03-08T19:47:31.003Z,99879.67
2019-03-08T19:50:18.106Z,99877.23
2019-03-08T19:52:50.108Z,99880.39
2019-03-08T19:55:24.721Z,99894.68
2019-03-08T19:57:56.616Z,99897.52
2019-03-08T20:00:28.938Z,99906.06
2019-03-08T20:03:01.145Z,99915.37
2019-03-08T20:05:51.056Z,99910.56
2019-03-08T20:08:40.762Z,99918.56
2019-03-08T20:11:15.324Z,99922.28
2019-03-08T20:13:49.877Z,99923.59
2019-03-08T20:16:22.251Z,99939.34
2019-03-08T20:18:57.603Z,99937.53
2019-03-08T20:21:39.136Z,99942.82
2019-03-08T20:24:16.936Z,99952.35
2019-03-08T20:26:54.691Z,99948.56
2019-03-08T20:29:29.936Z,99966.58
2019-03-08T20:32:12.367Z,99956.52
2019-03-08T20:34:44.472Z,99965.77
2019-03-08T20:37:29.815Z,99970.11
2019-03-08T20:40:11.541Z,99970.78
2019-03-08T20:42:43.894Z,99973.02
2019-03-08T20:45:16.290Z,99973.46
2019-03-08T20:47:47.950Z,99976.36
2019-03-08T20:50:18.179Z,99986.70
2019-03-08T20:52:48.568Z,99983.02
2019-03-08T20:55:19.181Z,99990.33
2019-03-08T20:57:49.524Z,99989.48
2019-03-08T21:00:21.168Z,100000.25
2019-03-08T21:02:52.691Z,100000.53
2019-03-08T21:05:24.251Z,100013.39
2019-03-08T21:07:55.598Z,100010.86
2019-03-08T21:10:27.667Z,100022.75
2019-03-08T21:12:58.874Z,100023.70
2019-03-08T21:15:30.238Z,100022.38
2019-03-08T21:18:00.690Z,100021.11
2019-03-08T21:20:31.891Z,100035.66
2019-03-08T21:23:02.632Z,100040.44
2019-03-08T21:25:36.454Z,100035.05
2019-03-08T21:28:06.761Z,100043.06
2019-03-08T21:30:37.119Z,100046.72
2019-03-08T21:33:08.534Z,100039.54
2019-03-08T21:35:41.032Z,100043.52
2019-03-08T21:38:11.531Z,100055.73
2019-03-08T21:40:43.632Z,100055.38
2019-03-08T21:43:15.131Z,100058.47
2019-03-08T21:45:46.128Z,100070.73
2019-03-08T21:48:16.828Z,100074.84
2019-03-08T21:50:47.182Z,100074.20
2019-03-08T21:53:17.983Z,100080.61
2019-03-08T21:55:48.228Z,100075.89
2019-03-08T21:58:25.125Z,100082.46
2019-03-08T22:00:55.836Z,100083.84
2019-03-08T22:03:26.143Z,100080.83
2019-03-08T22:05:57.091Z,100080.87
2019-03-08T22:08:27.876Z,100079.60
2019-03-08T22:11:04.494Z,100079.70
2019-03-08T22:13:35.264Z,100090.13
2019-03-08T22:16:05.987Z,100090.70
2019-03-08T22:18:37.086Z,100097.73
2019-03-08T22:21:08.020Z,100103.33
2019-03-08T22:23:38.822Z,100103.82
2019-03-08T22:26:09.662Z,100108.15
2019-03-08T22:28:40.110Z,100108.75
2019-03-08T22:31:10.281Z,100110.95
2019-03-08T22:33:40.589Z,100114.06
2019-03-08T22:36:11.200Z,100116.20
2019-03-08T22:38:41.568Z,100123.67
2019-03-08T22:41:12.155Z,100117.33
2019-03-08T22:43:42.898Z,100123.55
2019-03-08T22:46:13.216Z,100137.79
2019-03-08T22:48:43.430Z,100137.42
2019-03-08T22:51:13.993Z,100140.52
2019-03-08T22:53:44.773Z,100134.93
2019-03-08T22:56:15.023Z,100138.45
2019-03-08T22:58:45.336Z,100140.52
2019-03-08T23:01:20.676Z,100139.22
2019-03-08T23:03:52.643Z,100135.05
2019-03-08T23:06:24.511Z,100144.00
2019-03-08T23:08:55.824Z,100129.00
2019-03-08T23:11:27.892Z,100126.52
2019-03-08T23:13:58.238Z,100127.85
2019-03-08T23:16:29.297Z,100142.98
2019-03-08T23:19:01.717Z,100129.25
2019-03-08T23:21:32.644Z,100145.66
2019-03-08T23:24:03.373Z,100134.06
2019-03-08T23:26:35.730Z,100137.12
2019-03-08T23:29:09.769Z,100130.23
2019-03-08T23:31:42.107Z,100134.56
2019-03-08T23:34:12.747Z,100135.05
2019-03-08T23:36:43.375Z,100137.23
2019-03-08T23:42:03.821Z,100141.60
2019-03-08T23:44:35.702Z,100144.22
2019-03-08T23:47:08.092Z,100154.59
2019-03-08T23:49:39.023Z,100142.52
2019-03-08T23:52:09.795Z,100164.50
2019-03-08T23:54:41.917Z,100162.78
2019-03-08T23:57:12.361Z,100167.19
2019-03-08T23:59:42.715Z,100167.69
